Time;durP1;ratioP1;P1;durP2;ratioP2;P2;SDS_P1;SDS_P2;PMS_P1;PMS_P2;Temp;Humidity;BMP_temperature;BMP_pressure;BME280_temperature;BME280_humidity;BME280_pressure;Samples;Min_cycle;Max_cycle;Signal;HPM_P1;HPM_P2
2022/07/20 00:01:29;;;;;;;6.25;3.20;;;;;;;25.37;53.54;98955.00;4989958;28;20518;-78
2022/07/20 00:03:58;;;;;;;6.72;2.78;;;;;;;25.46;52.97;98953.81;4988004;28;20191;-78
2022/07/20 00:06:28;;;;;;;5.60;2.97;;;;;;;25.55;52.04;98954.50;4983658;28;20214;-79
2022/07/20 00:11:42;;;;;;;8.25;3.17;;;;;;;25.46;54.55;98956.50;4992148;28;20222;-78
2022/07/20 00:14:10;;;;;;;6.80;3.65;;;;;;;25.46;55.05;98961.09;4984448;28;20234;-78
2022/07/20 00:16:40;;;;;;;5.13;4.10;;;;;;;25.31;55.74;98961.22;4988757;28;20246;-78
2022/07/20 00:19:08;;;;;;;5.63;3.55;;;;;;;25.30;56.52;98959.56;4990121;28;20666;-78
2022/07/20 00:21:38;;;;;;;6.90;3.70;;;;;;;25.43;55.31;98961.50;4990124;28;20714;-78
2022/07/20 00:24:07;;;;;;;5.75;3.28;;;;;;;25.44;52.50;98958.59;4992989;28;20191;-78
2022/07/20 00:26:36;;;;;;;4.60;3.53;;;;;;;25.42;51.25;98946.28;4985098;28;20195;-78
2022/07/20 00:29:04;;;;;;;4.65;2.85;;;;;;;25.35;53.51;98949.78;4989635;28;20205;-78
2022/07/20 00:31:32;;;;;;;4.80;2.80;;;;;;;25.31;55.66;98951.22;4990904;28;20203;-78
2022/07/20 00:34:01;;;;;;;3.67;3.38;;;;;;;25.08;58.67;98947.88;4992643;28;20226;-78
2022/07/20 00:36:29;;;;;;;5.07;2.70;;;;;;;25.29;58.80;98941.59;4992637;28;20226;-78
2022/07/20 00:38:59;;;;;;;4.93;3.05;;;;;;;25.02;60.50;98946.81;4987082;28;20246;-78
2022/07/20 00:41:28;;;;;;;6.40;3.35;;;;;;;25.00;60.84;98946.16;4991381;28;20210;-78
2022/07/20 00:43:58;;;;;;;5.63;3.17;;;;;;;25.02;60.43;98944.13;4989194;28;20684;-78
2022/07/20 00:46:28;;;;;;;6.57;3.35;;;;;;;24.79;58.54;98943.44;4993810;28;20195;-79
2022/07/20 00:48:57;;;;;;;6.40;3.13;;;;;;;24.99;55.62;98947.16;4990716;28;20207;-78
2022/07/20 00:51:25;;;;;;;6.28;3.17;;;;;;;25.23;53.27;98945.94;4988476;28;20195;-78
2022/07/20 00:53:54;;;;;;;5.80;2.95;;;;;;;25.22;53.53;98938.84;4989426;28;20711;-78
2022/07/20 00:56:24;;;;;;;6.03;2.97;;;;;;;25.01;54.34;98945.13;4989703;28;20245;-78
2022/07/20 00:58:52;;;;;;;4.82;2.92;;;;;;;24.97;55.46;98942.97;4987686;28;20218;-78
2022/07/20 01:01:22;;;;;;;4.30;3.15;;;;;;;24.85;57.92;98934.53;4990352;28;20201;-78
2022/07/20 01:03:50;;;;;;;5.70;3.10;;;;;;;24.82;58.89;98943.06;4989422;28;20232;-78
2022/07/20 01:06:20;;;;;;;5.63;3.05;;;;;;;24.46;60.12;98943.13;4988542;28;20202;-78
2022/07/20 01:08:49;;;;;;;5.00;3.28;;;;;;;24.23;60.86;98954.94;4991696;28;20206;-78
2022/07/20 01:11:19;;;;;;;6.15;3.25;;;;;;;24.05;63.00;98953.69;4989811;28;20286;-78
2022/07/20 01:13:49;;;;;;;6.38;3.40;;;;;;;23.80;64.14;98961.25;4992092;28;20227;-78
2022/07/20 01:16:18;;;;;;;5.32;3.47;;;;;;;23.60;65.28;98961.81;4990778;28;20262;-78
2022/07/20 01:18:46;;;;;;;5.68;3.00;;;;;;;23.62;65.05;98967.88;4986392;28;20278;-78
2022/07/20 01:21:17;;;;;;;7.60;3.17;;;;;;;23.62;65.20;98965.16;4987971;28;20207;-78
2022/07/20 01:23:45;;;;;;;5.97;3.22;;;;;;;23.77;64.51;98964.34;4988734;28;20199;-78
2022/07/20 01:26:16;;;;;;;6.93;3.55;;;;;;;23.90;62.89;98959.09;4986776;28;20202;-78
2022/07/20 01:28:45;;;;;;;6.25;3.72;;;;;;;23.85;62.99;98964.25;4991886;28;20693;-78
2022/07/20 01:31:14;;;;;;;5.55;3.10;;;;;;;23.94;63.97;98957.72;4988262;28;20207;-78
2022/07/20 01:33:42;;;;;;;7.40;3.42;;;;;;;24.04;64.49;98958.25;4988630;28;20646;-78
2022/07/20 01:36:10;;;;;;;4.82;3.25;;;;;;;23.92;65.74;98952.47;4985293;28;20203;-78
2022/07/20 01:38:40;;;;;;;3.78;3.22;;;;;;;23.91;66.44;98958.06;4991190;28;20235;-78
2022/07/20 01:41:08;;;;;;;5.15;3.22;;;;;;;23.88;67.00;98955.75;4990430;28;20203;-78
2022/07/20 01:43:37;;;;;;;6.82;3.35;;;;;;;23.78;68.11;98953.34;4995934;28;20207;-78
2022/07/20 01:46:05;;;;;;;5.05;3.40;;;;;;;23.90;67.59;98945.56;4995537;28;20203;-78
2022/07/20 01:48:33;;;;;;;5.93;3.95;;;;;;;23.89;67.25;98947.44;4986103;28;20199;-81
2022/07/20 01:51:02;;;;;;;7.47;3.75;;;;;;;23.96;66.94;98951.06;4991457;28;20202;-78
2022/07/20 01:53:31;;;;;;;7.43;3.35;;;;;;;24.01;67.83;98957.78;4986795;28;20218;-78
2022/07/20 01:56:02;;;;;;;7.32;3.63;;;;;;;23.79;69.67;98946.91;4986925;28;20199;-78
2022/07/20 01:58:30;;;;;;;5.03;3.13;;;;;;;23.86;68.58;98950.53;4989115;28;20310;-78
2022/07/20 02:00:58;;;;;;;4.95;3.10;;;;;;;23.82;67.88;98946.50;4987027;28;20217;-78
2022/07/20 02:03:26;;;;;;;5.00;3.33;;;;;;;23.76;68.99;98944.56;4988273;28;20215;-78
2022/07/20 02:05:54;;;;;;;4.47;3.33;;;;;;;23.58;68.86;98944.91;4991025;28;20199;-78
2022/07/20 02:08:25;;;;;;;5.28;3.35;;;;;;;23.69;68.20;98941.78;4987350;28;20282;-78
2022/07/20 02:10:53;;;;;;;6.10;3.20;;;;;;;23.61;67.91;98949.97;4927408;29;20205;-78
2022/07/20 02:13:23;;;;;;;6.72;3.72;;;;;;;23.27;69.94;98938.84;4931221;28;20200;-78
2022/07/20 02:18:37;;;;;;;5.88;3.35;;;;;;;23.02;72.25;98944.47;4930846;28;20236;-78
2022/07/20 02:21:06;;;;;;;4.40;3.22;;;;;;;22.88;72.38;98944.47;4930892;29;20232;-78
2022/07/20 02:23:34;;;;;;;6.63;3.30;;;;;;;22.76;74.33;98944.84;4928627;29;20205;-78
2022/07/20 02:26:02;;;;;;;5.10;3.40;;;;;;;22.63;76.07;98947.31;4929651;28;20189;-78
2022/07/20 02:28:32;;;;;;;4.30;3.17;;;;;;;22.48;76.17;98951.78;4929717;29;20208;-78
2022/07/20 02:31:00;;;;;;;4.90;3.35;;;;;;;22.45;76.76;98952.16;4927360;29;20201;-78
2022/07/20 02:33:29;;;;;;;6.85;3.40;;;;;;;22.40;77.05;98951.88;4930829;29;20197;-78
2022/07/20 02:35:58;;;;;;;8.75;3.50;;;;;;;22.21;78.87;98951.31;4971317;28;20326;-78
2022/07/20 02:38:26;;;;;;;6.97;3.70;;;;;;;22.19;79.00;98956.03;4983383;28;20230;-78
2022/07/20 02:40:55;;;;;;;6.75;3.78;;;;;;;22.17;79.52;98954.53;4989377;28;20305;-78
2022/07/20 02:43:23;;;;;;;3.85;3.42;;;;;;;22.25;79.06;98952.63;4990454;28;20230;-78
2022/07/20 02:45:53;;;;;;;4.30;3.15;;;;;;;22.30;78.53;98951.28;4989151;28;20195;-78
2022/07/20 02:48:21;;;;;;;3.78;3.17;;;;;;;22.36;78.61;98950.53;4987500;28;20205;-78
2022/07/20 02:50:50;;;;;;;5.40;3.47;;;;;;;22.22;78.59;98947.59;4984432;28;20282;-78
2022/07/20 02:53:18;;;;;;;4.95;3.50;;;;;;;22.35;77.96;98946.16;4987488;28;20203;-78
2022/07/20 02:55:48;;;;;;;7.50;3.30;;;;;;;22.47;77.24;98944.72;4988842;28;20217;-78
2022/07/20 02:58:16;;;;;;;5.70;3.60;;;;;;;22.18;80.06;98942.72;4990241;28;20301;-78
2022/07/20 03:00:45;;;;;;;6.90;3.65;;;;;;;22.27;79.21;98947.88;4984172;28;20211;-78
2022/07/20 03:03:15;;;;;;;4.82;3.40;;;;;;;22.27;79.09;98945.19;4990437;28;20202;-78
2022/07/20 03:05:44;;;;;;;4.57;3.78;;;;;;;22.22;79.95;98944.06;4987577;28;20203;-78
2022/07/20 03:08:13;;;;;;;4.30;3.42;;;;;;;22.06;81.68;98947.63;4990011;28;20203;-78
2022/07/20 03:10:41;;;;;;;7.05;3.65;;;;;;;21.84;83.41;98940.34;4989176;28;20722;-78
2022/07/20 03:13:09;;;;;;;5.22;3.28;;;;;;;21.76;84.30;98948.47;4990137;28;20210;-77
2022/07/20 03:15:37;;;;;;;5.10;3.47;;;;;;;21.53;86.22;98946.53;4982719;28;20206;-78
2022/07/20 03:18:05;;;;;;;4.28;3.75;;;;;;;21.50;87.16;98949.56;4994286;28;20255;-78
2022/07/20 03:20:36;;;;;;;5.45;3.22;;;;;;;21.46;87.10;98948.22;4990061;28;20200;-77
2022/07/20 03:23:05;;;;;;;4.90;3.80;;;;;;;21.63;86.17;98943.63;4987289;28;20207;-78
2022/07/20 03:25:33;;;;;;;7.72;3.67;;;;;;;21.60;86.31;98949.34;4990970;28;20202;-78
2022/07/20 03:28:02;;;;;;;4.80;3.72;;;;;;;21.66;86.03;98944.13;4987232;28;20559;-78
2022/07/20 03:30:31;;;;;;;6.35;3.70;;;;;;;21.84;84.08;98957.38;4988146;28;20227;-78
2022/07/20 03:32:59;;;;;;;4.55;3.25;;;;;;;21.88;83.96;98957.84;4984595;28;20199;-78
2022/07/20 03:35:27;;;;;;;8.25;3.67;;;;;;;21.88;83.60;98958.69;4985516;28;20223;-78
2022/07/20 03:37:57;;;;;;;6.57;3.50;;;;;;;21.94;83.55;98952.59;4985367;28;20235;-78
2022/07/20 03:40:27;;;;;;;10.95;3.75;;;;;;;21.98;83.54;98955.78;4988193;28;20199;-78
2022/07/20 03:42:56;;;;;;;6.32;3.47;;;;;;;21.94;84.30;98951.75;4993462;28;20199;-78
2022/07/20 03:45:24;;;;;;;5.88;3.30;;;;;;;21.90;84.47;98955.81;4993333;28;20210;-78
2022/07/20 03:47:55;;;;;;;6.43;3.47;;;;;;;21.88;84.62;98955.97;4988219;28;20209;-78
2022/07/20 03:50:24;;;;;;;8.38;3.50;;;;;;;22.05;83.56;98953.22;4993005;28;20199;-78
2022/07/20 03:52:53;;;;;;;7.80;3.58;;;;;;;22.15;82.36;98964.66;4994713;28;20274;-79
2022/07/20 03:55:23;;;;;;;4.97;3.72;;;;;;;21.95;82.88;98966.91;4989136;28;20187;-78
2022/07/20 03:57:51;;;;;;;10.18;3.65;;;;;;;22.08;82.62;98961.81;4986861;28;20214;-78
2022/07/20 04:00:19;;;;;;;6.45;3.47;;;;;;;22.17;81.31;98954.53;4990105;28;20210;-79
2022/07/20 04:02:48;;;;;;;5.47;3.22;;;;;;;22.14;80.35;98953.03;4988828;28;20194;-78
2022/07/20 04:05:17;;;;;;;11.30;3.50;;;;;;;22.33;78.30;98961.69;4993110;28;20203;-78
2022/07/20 04:07:45;;;;;;;8.43;3.95;;;;;;;22.22;81.23;98954.84;4986659;28;20210;-78
2022/07/20 04:10:14;;;;;;;5.65;3.65;;;;;;;22.21;81.45;98959.41;4990049;28;20199;-78
2022/07/20 04:12:53;;;;;;;7.60;4.05;;;;;;;22.12;81.53;98968.56;4989602;28;20194;-78
2022/07/20 04:15:22;;;;;;;5.45;3.50;;;;;;;22.06;81.10;98963.00;4989808;28;20634;-78
2022/07/20 04:17:50;;;;;;;9.73;3.75;;;;;;;22.00;80.89;98967.22;4989735;28;20195;-79
2022/07/20 04:20:18;;;;;;;8.15;4.07;;;;;;;22.19;79.68;98968.69;4992613;28;20713;-79
2022/07/20 04:22:47;;;;;;;10.02;3.67;;;;;;;22.36;77.97;98981.06;4987435;28;20203;-78
2022/07/20 04:25:18;;;;;;;8.30;3.75;;;;;;;22.56;76.10;98976.88;4991584;28;20200;-78
2022/07/20 04:27:46;;;;;;;5.00;3.38;;;;;;;22.63;75.54;98981.56;4990357;28;20270;-78
2022/07/20 04:30:16;;;;;;;4.45;3.40;;;;;;;22.58;76.61;98976.69;4988827;28;20233;-78
2022/07/20 04:32:45;;;;;;;5.20;3.38;;;;;;;22.71;75.11;98976.13;4989363;28;20199;-78
2022/07/20 04:35:13;;;;;;;4.70;3.13;;;;;;;22.92;73.13;98972.78;4990571;28;20199;-79
2022/07/20 04:37:41;;;;;;;5.40;3.58;;;;;;;23.17;72.55;98976.13;4992279;28;20459;-78
2022/07/20 04:40:11;;;;;;;8.80;3.70;;;;;;;22.82;75.00;98968.44;4983441;28;20297;-78
2022/07/20 04:42:42;;;;;;;5.20;3.42;;;;;;;22.85;76.19;98980.75;4992367;28;20285;-78
2022/07/20 04:45:11;;;;;;;9.13;3.28;;;;;;;22.84;76.13;98979.91;4987865;28;20211;-78
2022/07/20 04:47:41;;;;;;;8.65;3.67;;;;;;;23.04;74.65;98976.72;4992207;28;20199;-78
2022/07/20 04:50:10;;;;;;;10.68;3.53;;;;;;;22.97;76.56;98978.47;4988180;28;20259;-78
2022/07/20 04:52:39;;;;;;;8.25;3.28;;;;;;;22.75;79.85;98980.13;4987093;28;20207;-79
2022/07/20 04:55:09;;;;;;;9.60;4.03;;;;;;;22.80;79.55;98977.75;4991033;28;20298;-78
2022/07/20 04:57:37;;;;;;;6.32;3.70;;;;;;;22.92;79.49;98976.31;4989457;28;20210;-78
2022/07/20 05:00:07;;;;;;;8.15;3.60;;;;;;;23.18;76.63;98977.78;4988070;28;20321;-78
2022/07/20 05:02:36;;;;;;;8.38;3.83;;;;;;;23.72;72.10;98975.72;4992029;28;20201;-78
2022/07/20 05:05:07;;;;;;;4.82;3.28;;;;;;;23.93;71.35;98972.25;4991213;28;20235;-78
2022/07/20 05:07:36;;;;;;;4.00;2.97;;;;;;;24.05;70.69;98981.56;4993203;28;20227;-79
2022/07/20 05:10:04;;;;;;;8.23;3.13;;;;;;;24.17;69.90;98968.38;5050412;28;20200;-78
2022/07/20 05:12:33;;;;;;;6.43;3.10;;;;;;;24.46;68.98;98970.22;5047517;28;20232;-78
2022/07/20 05:15:01;;;;;;;5.70;3.08;;;;;;;24.54;68.37;98976.34;5051962;28;20203;-78
2022/07/20 05:17:29;;;;;;;6.15;3.22;;;;;;;24.72;67.29;98978.63;5047224;28;20197;-79
2022/07/20 05:19:58;;;;;;;4.93;2.97;;;;;;;24.87;66.18;98970.41;5044842;28;20237;-78
2022/07/20 05:22:27;;;;;;;6.53;3.50;;;;;;;25.01;65.71;98971.38;5049413;28;20220;-78
2022/07/20 05:24:56;;;;;;;5.45;3.47;;;;;;;25.09;65.35;98969.41;5046299;28;20197;-78
2022/07/20 05:27:24;;;;;;;4.20;3.00;;;;;;;25.24;64.72;98965.75;5042557;28;20195;-78
2022/07/20 05:29:53;;;;;;;7.03;3.10;;;;;;;25.36;64.43;98980.44;4988770;28;20199;-78
2022/07/20 05:32:21;;;;;;;5.90;3.08;;;;;;;25.26;64.47;98979.94;4985987;28;20214;-79
2022/07/20 05:34:49;;;;;;;5.78;3.40;;;;;;;25.16;69.22;98985.72;4989845;28;20203;-79
2022/07/20 05:37:17;;;;;;;10.25;3.40;;;;;;;25.00;74.12;98983.25;4991316;28;20242;-78
2022/07/20 05:39:47;;;;;;;6.00;3.50;;;;;;;24.71;78.81;98990.50;4990139;28;20775;-78
2022/07/20 05:42:15;;;;;;;3.92;3.08;;;;;;;25.22;65.31;98992.22;4987815;28;20282;-79
2022/07/20 05:44:46;;;;;;;4.63;2.90;;;;;;;25.55;60.53;98996.00;4987716;28;20195;-79
2022/07/20 05:47:17;;;;;;;5.10;3.15;;;;;;;25.81;58.11;98995.38;4985789;28;20191;-78
2022/07/20 05:49:47;;;;;;;7.40;3.33;;;;;;;26.05;56.60;98998.63;4991452;28;20245;-79
2022/07/20 05:52:15;;;;;;;5.50;2.85;;;;;;;26.19;55.88;98987.63;4982931;28;20206;-79
2022/07/20 05:54:44;;;;;;;7.82;3.58;;;;;;;26.41;54.69;98985.66;4987270;28;20266;-79
2022/07/20 05:57:14;;;;;;;8.10;3.38;;;;;;;26.60;53.85;98997.63;4988291;28;20241;-79
2022/07/20 05:59:43;;;;;;;5.20;3.00;;;;;;;26.68;54.47;98986.56;4985956;28;20302;-79
2022/07/20 06:02:11;;;;;;;8.18;3.60;;;;;;;26.73;53.96;98985.94;4984340;28;20213;-79
2022/07/20 06:04:39;;;;;;;5.57;3.33;;;;;;;26.73;54.27;98994.09;4988442;28;20199;-78
2022/07/20 06:07:10;;;;;;;4.78;3.25;;;;;;;26.82;54.69;98985.53;4985671;28;20662;-78
2022/07/20 06:09:38;;;;;;;4.70;2.95;;;;;;;26.92;54.97;98992.44;4991472;28;20270;-79
2022/07/20 06:12:07;;;;;;;3.80;3.30;;;;;;;27.00;53.94;98993.06;4987670;28;20203;-79
2022/07/20 06:14:37;;;;;;;10.43;3.40;;;;;;;27.16;53.51;98991.88;4991045;28;20203;-79
2022/07/20 06:17:05;;;;;;;5.13;3.03;;;;;;;27.23;52.06;98998.16;4987300;28;20199;-78
2022/07/20 06:19:35;;;;;;;11.45;3.55;;;;;;;27.28;51.65;98997.50;4986901;28;20237;-78
2022/07/20 06:22:03;;;;;;;4.47;3.05;;;;;;;27.49;50.74;99002.72;4990845;28;20278;-79
2022/07/20 06:24:31;;;;;;;5.32;3.13;;;;;;;27.54;50.36;98997.50;4986628;28;20201;-79
2022/07/20 06:26:59;;;;;;;5.25;3.28;;;;;;;27.73;49.90;99000.44;4990888;28;20278;-79
2022/07/20 06:29:28;;;;;;;3.83;2.60;;;;;;;27.77;49.70;98997.06;4990820;28;20241;-79
2022/07/20 06:31:57;;;;;;;5.07;3.35;;;;;;;27.85;48.72;98999.56;4989895;28;20234;-79
2022/07/20 06:34:43;;;;;;;4.38;3.08;;;;;;;27.85;48.85;98996.00;4987657;28;20210;-79
2022/07/20 06:37:12;;;;;;;4.55;3.05;;;;;;;27.95;49.01;99004.56;4990586;28;20238;-78
2022/07/20 06:39:40;;;;;;;5.57;3.25;;;;;;;28.08;49.03;98996.34;4986819;28;20321;-78
2022/07/20 06:42:14;;;;;;;5.72;3.30;;;;;;;28.20;48.98;98997.38;4986019;28;20210;-79
2022/07/20 06:44:42;;;;;;;8.50;3.25;;;;;;;28.24;48.79;98995.88;4987787;28;20203;-79
2022/07/20 06:47:12;;;;;;;8.23;3.10;;;;;;;28.29;48.92;99005.31;4986550;28;20281;-79
2022/07/20 06:49:41;;;;;;;5.03;2.92;;;;;;;28.32;48.65;98994.81;4985382;28;20222;-79
2022/07/20 06:52:09;;;;;;;5.00;3.20;;;;;;;28.34;48.50;99008.22;4984738;28;20222;-78
2022/07/20 06:54:38;;;;;;;6.60;3.20;;;;;;;28.35;48.81;99015.34;4984149;28;20191;-79
2022/07/20 06:57:06;;;;;;;8.18;3.45;;;;;;;28.31;48.35;99012.22;4990388;28;20285;-79
2022/07/20 06:59:37;;;;;;;5.30;2.83;;;;;;;28.51;48.35;99012.97;4979493;28;20214;-79
2022/07/20 07:02:05;;;;;;;6.47;2.90;;;;;;;28.46;48.47;99018.22;4987946;28;20270;-78
2022/07/20 07:04:35;;;;;;;5.60;2.80;;;;;;;28.40;48.97;99013.66;4981031;28;20203;-79
2022/07/20 07:07:03;;;;;;;5.35;3.15;;;;;;;28.52;48.67;99016.53;4987527;28;20282;-79
2022/07/20 07:09:31;;;;;;;5.32;3.15;;;;;;;28.64;48.51;99016.66;4993568;28;20208;-78
2022/07/20 07:12:00;;;;;;;5.20;3.08;;;;;;;28.56;48.53;99012.28;4987578;28;20195;-78
2022/07/20 07:14:29;;;;;;;4.75;3.03;;;;;;;28.67;49.61;99010.81;4992226;28;20214;-78
2022/07/20 07:16:57;;;;;;;7.40;3.40;;;;;;;28.90;48.78;99010.25;4993761;28;20203;-78
2022/07/20 07:19:25;;;;;;;7.28;3.03;;;;;;;28.93;47.86;99012.53;4987730;28;20195;-79
2022/07/20 07:21:55;;;;;;;8.23;3.10;;;;;;;29.06;47.67;99013.28;4993361;28;20223;-78
2022/07/20 07:24:25;;;;;;;7.45;3.60;;;;;;;29.13;47.53;99013.22;4987346;28;20207;-78
2022/07/20 07:26:53;;;;;;;5.68;3.33;;;;;;;29.25;47.33;99021.56;4992112;28;20195;-78
2022/07/20 07:29:24;;;;;;;3.90;3.30;;;;;;;29.46;47.07;99018.41;4993239;28;20199;-78
2022/07/20 07:31:53;;;;;;;5.75;2.92;;;;;;;29.54;47.62;99003.69;4990452;28;20672;-78
2022/07/20 07:34:21;;;;;;;6.35;3.00;;;;;;;29.52;46.96;99006.63;4990075;28;20230;-78
2022/07/20 07:36:49;;;;;;;5.07;2.97;;;;;;;29.64;47.13;99001.28;4984805;28;20199;-79
2022/07/20 07:39:19;;;;;;;9.63;3.22;;;;;;;29.83;46.53;99002.13;4973501;28;20204;-79
2022/07/20 07:41:47;;;;;;;7.53;3.40;;;;;;;29.97;45.78;99000.09;4971258;28;20250;-79
2022/07/20 07:44:16;;;;;;;11.65;3.22;;;;;;;29.92;45.96;98995.31;4973429;28;20263;-79
2022/07/20 07:46:44;;;;;;;7.97;3.00;;;;;;;29.94;45.64;99001.38;4973912;28;20222;-79
2022/07/20 07:49:13;;;;;;;5.97;3.00;;;;;;;30.03;45.94;98996.47;4972598;28;20199;-78
2022/07/20 07:51:41;;;;;;;5.75;3.00;;;;;;;30.08;45.71;99000.19;4972641;28;20196;-79
2022/07/20 07:54:10;;;;;;;5.60;3.40;;;;;;;30.29;45.42;98998.88;4973500;28;20212;-79
2022/07/20 07:56:42;;;;;;;6.07;3.17;;;;;;;30.37;45.46;98998.56;4972381;28;20287;-78
2022/07/20 07:59:10;;;;;;;4.90;2.70;;;;;;;30.48;44.74;98999.69;4973521;28;20235;-79
2022/07/20 08:01:59;;;;;;;4.40;2.88;;;;;;;30.43;44.62;99000.38;4973273;28;20224;-79
2022/07/20 08:04:27;;;;;;;4.95;3.08;;;;;;;30.62;44.22;99006.66;4972930;28;20212;-78
2022/07/20 08:06:55;;;;;;;8.02;2.75;;;;;;;30.76;44.18;98996.38;4972306;28;20207;-78
2022/07/20 08:09:24;;;;;;;5.88;2.78;;;;;;;30.92;43.66;98997.63;4971238;28;20211;-79
2022/07/20 08:11:54;;;;;;;5.60;2.67;;;;;;;30.96;43.74;98999.66;4973114;28;20200;-79
2022/07/20 08:14:22;;;;;;;5.72;3.00;;;;;;;30.97;43.44;99000.47;4974424;28;20212;-78
2022/07/20 08:16:52;;;;;;;3.10;2.80;;;;;;;31.13;43.19;98999.81;4971912;28;20200;-78
2022/07/20 08:19:20;;;;;;;7.88;2.90;;;;;;;31.20;42.99;98995.09;4970362;28;20230;-79
2022/07/20 08:21:48;;;;;;;4.65;3.03;;;;;;;31.53;42.92;98994.53;4970566;28;20227;-78
2022/07/20 08:24:17;;;;;;;4.53;2.75;;;;;;;31.73;41.67;98993.31;4973034;28;20269;-79
2022/07/20 08:26:45;;;;;;;4.07;2.58;;;;;;;31.72;41.70;98999.88;4970540;28;20204;-79
2022/07/20 08:29:15;;;;;;;6.63;3.10;;;;;;;31.89;41.65;98998.13;4970727;28;20283;-79
2022/07/20 08:31:43;;;;;;;6.15;3.08;;;;;;;31.85;41.30;99000.50;4970582;28;20200;-78
2022/07/20 08:34:12;;;;;;;4.78;2.90;;;;;;;32.11;41.11;98990.91;4971612;28;20219;-79
2022/07/20 08:36:48;;;;;;;5.43;2.97;;;;;;;32.15;40.72;98999.50;4971451;28;20191;-78
2022/07/20 08:39:18;;;;;;;6.05;2.70;;;;;;;32.42;40.28;98997.88;4953599;28;20558;-78
2022/07/20 08:41:48;;;;;;;4.25;3.00;;;;;;;32.41;39.60;99007.19;4952551;29;20223;-79
2022/07/20 08:44:18;;;;;;;7.07;3.10;;;;;;;32.36;40.82;99011.75;4954475;28;20213;-79
2022/07/20 08:46:46;;;;;;;5.43;2.90;;;;;;;32.16;41.24;98999.25;4954525;28;20204;-79
2022/07/20 08:49:15;;;;;;;5.93;3.10;;;;;;;31.76;41.60;98995.63;4953267;29;20196;-78
2022/07/20 08:51:44;;;;;;;7.78;2.78;;;;;;;32.07;41.40;99003.44;4953346;29;20193;-78
2022/07/20 08:54:13;;;;;;;5.75;2.65;;;;;;;31.85;40.67;98996.94;4953087;29;20216;-78
2022/07/20 08:56:41;;;;;;;5.50;3.33;;;;;;;32.03;41.36;98994.03;4949948;29;20283;-78
2022/07/20 08:59:09;;;;;;;6.95;3.00;;;;;;;32.14;40.79;98992.34;4953198;29;20202;-78
2022/07/20 09:01:58;;;;;;;4.95;2.85;;;;;;;32.21;41.20;98995.78;4953026;29;20644;-79
2022/07/20 09:04:26;;;;;;;5.28;3.03;;;;;;;32.57;38.21;98991.88;4950637;29;20204;-78
2022/07/20 09:06:54;;;;;;;7.50;3.10;;;;;;;32.85;37.84;98991.06;4955503;28;20204;-79
2022/07/20 09:09:24;;;;;;;3.55;2.70;;;;;;;33.03;37.16;98985.34;4951939;29;20204;-79
2022/07/20 09:11:52;;;;;;;4.43;3.08;;;;;;;33.36;35.29;98991.13;4953166;28;20193;-79
2022/07/20 09:14:40;;;;;;;4.05;3.38;;;;;;;33.25;36.89;98984.59;4953227;29;20204;-78
2022/07/20 09:17:18;;;;;;;4.35;2.80;;;;;;;33.03;38.09;98979.03;4952969;29;20285;-78
2022/07/20 09:20:05;;;;;;;4.10;2.70;;;;;;;33.35;36.77;98983.94;4952541;28;20200;-79
2022/07/20 09:22:35;;;;;;;4.85;2.85;;;;;;;33.58;36.51;98981.00;4952572;29;20224;-79
2022/07/20 09:25:10;;;;;;;3.65;2.97;;;;;;;33.33;37.94;98994.34;4951740;28;20197;-78
2022/07/20 09:27:39;;;;;;;4.50;2.80;;;;;;;33.26;37.29;98986.25;4952629;28;20219;-78
2022/07/20 09:30:10;;;;;;;4.72;2.90;;;;;;;33.74;35.66;98984.81;4951219;29;20211;-79
2022/07/20 09:32:58;;;;;;;5.38;3.00;;;;;;;33.95;33.55;98985.97;4952705;29;20259;-78
2022/07/20 09:35:29;;;;;;;3.60;2.83;;;;;;;34.03;33.32;98993.78;4952398;29;20224;-78
2022/07/20 09:37:59;;;;;;;5.18;2.65;;;;;;;33.54;33.35;98994.44;4969859;28;20259;-78
2022/07/20 09:40:28;;;;;;;6.85;3.13;;;;;;;34.00;34.18;98995.13;4987243;28;20315;-78
2022/07/20 09:42:56;;;;;;;4.05;2.67;;;;;;;34.11;32.97;98998.84;4989424;28;20231;-78
2022/07/20 09:45:27;;;;;;;5.95;2.80;;;;;;;34.18;33.80;98995.91;4991306;28;20303;-78
2022/07/20 09:48:13;;;;;;;4.22;2.80;;;;;;;33.91;34.00;98996.66;4991114;28;20747;-79
2022/07/20 09:50:43;;;;;;;6.15;2.75;;;;;;;34.27;32.95;98994.38;4990984;28;20204;-78
2022/07/20 09:53:14;;;;;;;3.40;2.70;;;;;;;34.50;32.59;98991.34;4988065;28;20202;-78
2022/07/20 09:55:43;;;;;;;3.97;2.58;;;;;;;34.60;33.42;99004.41;4989516;28;20210;-78
2022/07/20 09:58:11;;;;;;;4.30;2.70;;;;;;;34.68;32.59;98999.28;4990291;28;20198;-78
2022/07/20 10:00:40;;;;;;;6.30;3.08;;;;;;;34.92;32.97;98996.22;4991148;28;20187;-78
2022/07/20 10:03:18;;;;;;;6.95;2.70;;;;;;;35.02;33.04;98992.72;4989153;28;20287;-79
2022/07/20 10:05:46;;;;;;;4.20;2.85;;;;;;;35.23;31.99;98992.66;4988124;28;20199;-78
2022/07/20 10:08:15;;;;;;;5.07;2.97;;;;;;;35.41;31.77;98982.34;4988036;28;20203;-78
2022/07/20 10:10:43;;;;;;;3.72;2.80;;;;;;;35.65;31.50;98988.31;4988281;28;20229;-78
2022/07/20 10:13:12;;;;;;;4.85;2.90;;;;;;;35.67;31.55;98989.69;4990968;28;20289;-79
2022/07/20 10:15:50;;;;;;;5.78;2.90;;;;;;;35.61;31.88;98990.75;4988070;28;20206;-78
2022/07/20 10:18:20;;;;;;;5.68;2.90;;;;;;;35.39;30.62;98992.81;4947465;29;20227;-78
2022/07/20 10:20:50;;;;;;;6.85;2.97;;;;;;;34.65;31.92;98979.69;4949787;29;20219;-78
2022/07/20 10:23:29;;;;;;;4.13;2.80;;;;;;;35.17;31.73;98976.34;4947581;29;20224;-78
2022/07/20 10:25:58;;;;;;;5.10;2.83;;;;;;;35.26;30.38;98972.03;4948727;29;20203;-78
2022/07/20 10:28:29;;;;;;;4.75;2.90;;;;;;;35.59;30.31;98965.38;4949714;29;20192;-79
2022/07/20 10:31:00;;;;;;;5.28;2.60;;;;;;;35.99;30.36;98972.25;4947588;28;20196;-78
2022/07/20 10:33:31;;;;;;;5.18;3.00;;;;;;;36.24;29.95;98966.84;4950151;29;20283;-78
2022/07/20 10:38:56;;;;;;;5.22;3.08;;;;;;;35.95;31.07;98971.13;4994368;28;20832;-78
2022/07/20 10:41:36;;;;;;;3.13;2.83;;;;;;;36.38;30.45;98965.25;4993494;28;20226;-78
2022/07/20 10:44:30;;;;;;;2.97;2.67;;;;;;;35.92;30.36;98964.25;4989559;28;20277;-78
2022/07/20 10:46:59;;;;;;;6.75;2.60;;;;;;;36.04;29.66;98944.69;4988755;28;20203;-78
2022/07/20 10:50:02;;;;;;;5.80;2.85;;;;;;;37.04;28.41;98952.69;4992063;28;20198;-79
2022/07/20 10:52:33;;;;;;;6.45;2.78;;;;;;;37.35;27.29;98950.75;4990771;28;20213;-78
2022/07/20 10:55:01;;;;;;;4.60;3.17;;;;;;;37.46;26.94;98950.50;4989420;28;20202;-79
2022/07/20 10:57:31;;;;;;;4.80;3.03;;;;;;;37.52;27.30;98940.25;4991007;28;20213;-79
2022/07/20 11:00:17;;;;;;;5.70;3.20;;;;;;;37.43;27.46;98942.75;4988503;28;20203;-78
2022/07/20 11:02:46;;;;;;;6.20;3.45;;;;;;;38.00;26.33;98951.75;4993835;28;20366;-79
2022/07/20 11:05:22;;;;;;;4.78;3.58;;;;;;;37.85;26.61;98947.09;4990700;28;20654;-79
2022/07/20 11:07:51;;;;;;;4.35;3.10;;;;;;;37.03;27.59;98948.28;4986954;28;20224;-80
2022/07/20 11:10:23;;;;;;;4.55;3.00;;;;;;;36.58;26.99;98953.47;4992308;28;20207;-79
2022/07/20 11:12:58;;;;;;;4.15;2.80;;;;;;;36.16;27.88;98953.56;4993592;28;20205;-78
2022/07/20 11:15:39;;;;;;;5.15;3.10;;;;;;;37.13;26.97;98943.56;4993305;28;20203;-78
2022/07/20 11:18:09;;;;;;;5.20;2.90;;;;;;;37.68;26.69;98932.75;4991040;28;20278;-79
2022/07/20 11:20:47;;;;;;;5.47;3.22;;;;;;;38.04;26.71;98934.31;4993214;28;20191;-79
2022/07/20 11:23:16;;;;;;;4.93;3.20;;;;;;;37.17;25.97;98941.94;4986738;28;20223;-78
2022/07/20 11:25:51;;;;;;;7.55;2.80;;;;;;;37.51;24.83;98931.13;4988516;28;20218;-79
2022/07/20 11:28:22;;;;;;;6.18;2.78;;;;;;;37.77;25.71;98931.91;4992767;28;20203;-79
2022/07/20 11:30:52;;;;;;;3.47;2.90;;;;;;;38.00;26.51;98930.44;4990377;28;20191;-79
2022/07/20 11:33:26;;;;;;;6.50;3.33;;;;;;;38.30;26.10;98921.19;5039683;28;20286;-79
2022/07/20 11:35:57;;;;;;;5.40;3.05;;;;;;;39.04;25.69;98921.25;4993280;28;20733;-79
2022/07/20 11:38:35;;;;;;;5.38;3.00;;;;;;;38.97;25.48;98921.56;4993015;28;20315;-79
2022/07/20 11:41:06;;;;;;;3.90;3.00;;;;;;;39.03;25.88;98917.66;4990722;28;20203;-79
2022/07/20 11:43:48;;;;;;;5.85;3.15;;;;;;;39.59;25.45;98908.03;4992770;28;20219;-79
2022/07/20 11:46:18;;;;;;;6.70;3.38;;;;;;;40.11;24.75;98909.06;4997174;28;20234;-79
2022/07/20 11:48:54;;;;;;;6.30;3.60;;;;;;;40.57;24.41;98898.97;4990153;28;20215;-79
2022/07/20 11:51:50;;;;;;;7.78;4.40;;;;;;;38.94;25.56;98903.59;4992798;28;20232;-79
2022/07/20 11:54:21;;;;;;;5.80;3.25;;;;;;;39.72;25.34;98888.72;4993908;28;20681;-78
2022/07/20 11:56:51;;;;;;;8.25;3.10;;;;;;;39.68;25.15;98889.59;4990391;28;20662;-79